sensor_id;sensor_type;location;lat;lon;timestamp;temperature;humidity
44359;DHT22;30077;52.474;13.326;2023-12-29T00:08:56;8.10;99.90
44359;DHT22;30077;52.474;13.326;2023-12-29T00:18:56;8.20;99.90
44359;DHT22;30077;52.474;13.326;2023-12-29T00:28:57;8.20;99.90
44359;DHT22;30077;52.474;13.326;2023-12-29T00:38:59;8.30;99.90
44359;DHT22;30077;52.474;13.326;2023-12-29T00:49:00;8.30;99.90
44359;DHT22;30077;52.474;13.326;2023-12-29T00:59:00;8.20;99.90
44359;DHT22;30077;52.474;13.326;2023-12-29T01:09:01;8.20;99.90
44359;DHT22;30077;52.474;13.326;2023-12-29T01:19:02;8.20;99.90
44359;DHT22;30077;52.474;13.326;2023-12-29T01:29:04;8.20;99.90
44359;DHT22;30077;52.474;13.326;2023-12-29T01:39:05;8.20;99.90
44359;DHT22;30077;52.474;13.326;2023-12-29T01:49:06;8.20;99.90
44359;DHT22;30077;52.474;13.326;2023-12-29T01:59:07;8.30;99.90
44359;DHT22;30077;52.474;13.326;2023-12-29T02:09:08;8.20;99.90
44359;DHT22;30077;52.474;13.326;2023-12-29T02:19:38;8.30;99.90
44359;DHT22;30077;52.474;13.326;2023-12-29T02:29:44;8.30;99.90
44359;DHT22;30077;52.474;13.326;2023-12-29T02:39:51;8.20;99.90
44359;DHT22;30077;52.474;13.326;2023-12-29T02:49:52;8.20;99.90
44359;DHT22;30077;52.474;13.326;2023-12-29T02:59:54;8.30;99.90
44359;DHT22;30077;52.474;13.326;2023-12-29T03:09:55;8.30;99.90
44359;DHT22;30077;52.474;13.326;2023-12-29T03:19:56;8.30;99.90
44359;DHT22;30077;52.474;13.326;2023-12-29T03:29:57;8.40;99.90
44359;DHT22;30077;52.474;13.326;2023-12-29T03:39:57;8.40;99.90
44359;DHT22;30077;52.474;13.326;2023-12-29T03:49:58;8.50;99.90
44359;DHT22;30077;52.474;13.326;2023-12-29T03:59:58;8.60;99.90
44359;DHT22;30077;52.474;13.326;2023-12-29T04:09:59;8.60;99.90
44359;DHT22;30077;52.474;13.326;2023-12-29T04:20:00;8.60;99.90
44359;DHT22;30077;52.474;13.326;2023-12-29T04:30:00;8.50;99.90
44359;DHT22;30077;52.474;13.326;2023-12-29T04:40:01;8.60;99.90
44359;DHT22;30077;52.474;13.326;2023-12-29T04:50:02;8.60;99.90
44359;DHT22;30077;52.474;13.326;2023-12-29T05:00:03;8.50;99.90
44359;DHT22;30077;52.474;13.326;2023-12-29T05:10:06;8.40;99.90
44359;DHT22;30077;52.474;13.326;2023-12-29T05:20:08;8.40;99.90
44359;DHT22;30077;52.474;13.326;2023-12-29T05:30:10;8.40;99.90
44359;DHT22;30077;52.474;13.326;2023-12-29T05:40:11;8.60;99.90
44359;DHT22;30077;52.474;13.326;2023-12-29T05:50:12;8.60;99.90
44359;DHT22;30077;52.474;13.326;2023-12-29T06:00:13;8.70;99.90
44359;DHT22;30077;52.474;13.326;2023-12-29T06:10:14;8.80;99.90
44359;DHT22;30077;52.474;13.326;2023-12-29T06:20:15;8.70;99.90
44359;DHT22;30077;52.474;13.326;2023-12-29T06:30:16;8.90;99.90
44359;DHT22;30077;52.474;13.326;2023-12-29T06:40:17;9.00;99.90
44359;DHT22;30077;52.474;13.326;2023-12-29T06:50:17;9.20;99.90
44359;DHT22;30077;52.474;13.326;2023-12-29T07:00:18;9.20;99.90
44359;DHT22;30077;52.474;13.326;2023-12-29T07:10:19;9.30;99.90
44359;DHT22;30077;52.474;13.326;2023-12-29T07:20:20;9.40;99.90
44359;DHT22;30077;52.474;13.326;2023-12-29T07:30:21;9.50;99.90
44359;DHT22;30077;52.474;13.326;2023-12-29T07:40:22;9.50;99.90
44359;DHT22;30077;52.474;13.326;2023-12-29T07:50:23;9.60;99.90
44359;DHT22;30077;52.474;13.326;2023-12-29T08:00:23;9.40;99.90
44359;DHT22;30077;52.474;13.326;2023-12-29T08:10:24;9.50;99.90
44359;DHT22;30077;52.474;13.326;2023-12-29T08:20:25;9.80;99.90
44359;DHT22;30077;52.474;13.326;2023-12-29T08:30:25;10.00;99.90
44359;DHT22;30077;52.474;13.326;2023-12-29T08:40:26;10.10;99.90
44359;DHT22;30077;52.474;13.326;2023-12-29T08:50:27;10.00;99.90
44359;DHT22;30077;52.474;13.326;2023-12-29T09:00:27;10.10;99.90
44359;DHT22;30077;52.474;13.326;2023-12-29T09:10:30;10.10;99.90
44359;DHT22;30077;52.474;13.326;2023-12-29T09:20:31;10.20;99.90
44359;DHT22;30077;52.474;13.326;2023-12-29T09:30:31;10.50;99.90
44359;DHT22;30077;52.474;13.326;2023-12-29T09:40:32;10.60;99.90
44359;DHT22;30077;52.474;13.326;2023-12-29T09:50:34;10.80;99.90
44359;DHT22;30077;52.474;13.326;2023-12-29T10:00:35;10.80;99.90
44359;DHT22;30077;52.474;13.326;2023-12-29T10:10:38;11.20;99.90
44359;DHT22;30077;52.474;13.326;2023-12-29T10:31:09;11.70;99.90
44359;DHT22;30077;52.474;13.326;2023-12-29T10:41:17;11.80;99.90
44359;DHT22;30077;52.474;13.326;2023-12-29T10:51:26;11.80;99.90
44359;DHT22;30077;52.474;13.326;2023-12-29T11:01:28;11.90;99.90
44359;DHT22;30077;52.474;13.326;2023-12-29T11:11:34;11.80;99.90
44359;DHT22;30077;52.474;13.326;2023-12-29T11:21:37;11.80;99.90
44359;DHT22;30077;52.474;13.326;2023-12-29T11:31:39;11.90;99.90
44359;DHT22;30077;52.474;13.326;2023-12-29T11:51:49;11.70;99.90
44359;DHT22;30077;52.474;13.326;2023-12-29T12:01:53;11.60;99.90
44359;DHT22;30077;52.474;13.326;2023-12-29T12:11:58;11.60;99.90
44359;DHT22;30077;52.474;13.326;2023-12-29T12:21:59;11.60;99.90
44359;DHT22;30077;52.474;13.326;2023-12-29T12:32:00;11.40;99.90
44359;DHT22;30077;52.474;13.326;2023-12-29T12:42:00;11.20;99.90
44359;DHT22;30077;52.474;13.326;2023-12-29T12:52:03;11.00;99.90
44359;DHT22;30077;52.474;13.326;2023-12-29T13:02:04;11.00;99.90
44359;DHT22;30077;52.474;13.326;2023-12-29T13:12:10;10.90;99.90
44359;DHT22;30077;52.474;13.326;2023-12-29T13:22:11;10.90;99.90
44359;DHT22;30077;52.474;13.326;2023-12-29T13:32:33;10.90;99.90
44359;DHT22;30077;52.474;13.326;2023-12-29T13:42:35;11.00;99.90
44359;DHT22;30077;52.474;13.326;2023-12-29T13:52:37;10.90;99.90
44359;DHT22;30077;52.474;13.326;2023-12-29T14:02:39;11.00;99.90
44359;DHT22;30077;52.474;13.326;2023-12-29T14:12:40;11.00;99.90
44359;DHT22;30077;52.474;13.326;2023-12-29T14:22:41;10.90;99.90
44359;DHT22;30077;52.474;13.326;2023-12-29T14:32:42;10.90;99.90
44359;DHT22;30077;52.474;13.326;2023-12-29T14:42:43;11.00;99.90
44359;DHT22;30077;52.474;13.326;2023-12-29T14:52:44;11.00;99.90
44359;DHT22;30077;52.474;13.326;2023-12-29T15:02:45;11.00;99.90
44359;DHT22;30077;52.474;13.326;2023-12-29T15:12:45;11.00;99.90
44359;DHT22;30077;52.474;13.326;2023-12-29T15:22:46;10.80;99.90
44359;DHT22;30077;52.474;13.326;2023-12-29T15:32:47;10.70;99.90
44359;DHT22;30077;52.474;13.326;2023-12-29T15:42:49;10.80;99.90
44359;DHT22;30077;52.474;13.326;2023-12-29T15:52:49;10.70;99.90
44359;DHT22;30077;52.474;13.326;2023-12-29T16:02:50;10.50;99.90
44359;DHT22;30077;52.474;13.326;2023-12-29T16:12:51;10.50;99.90
44359;DHT22;30077;52.474;13.326;2023-12-29T16:22:52;10.40;99.90
44359;DHT22;30077;52.474;13.326;2023-12-29T16:32:53;10.30;99.90
44359;DHT22;30077;52.474;13.326;2023-12-29T16:42:54;10.30;99.90
44359;DHT22;30077;52.474;13.326;2023-12-29T16:52:55;10.30;99.90
44359;DHT22;30077;52.474;13.326;2023-12-29T17:02:57;10.10;99.90
44359;DHT22;30077;52.474;13.326;2023-12-29T17:12:57;10.20;99.90
44359;DHT22;30077;52.474;13.326;2023-12-29T17:22:58;10.20;99.90
44359;DHT22;30077;52.474;13.326;2023-12-29T17:32:59;10.10;99.90
44359;DHT22;30077;52.474;13.326;2023-12-29T17:43:00;10.20;99.90
44359;DHT22;30077;52.474;13.326;2023-12-29T17:53:02;10.30;99.90
44359;DHT22;30077;52.474;13.326;2023-12-29T18:03:03;10.30;99.90
44359;DHT22;30077;52.474;13.326;2023-12-29T18:13:05;10.30;99.90
44359;DHT22;30077;52.474;13.326;2023-12-29T18:23:07;10.30;99.90
44359;DHT22;30077;52.474;13.326;2023-12-29T18:33:08;10.30;99.90
44359;DHT22;30077;52.474;13.326;2023-12-29T18:43:09;10.30;99.90
44359;DHT22;30077;52.474;13.326;2023-12-29T18:53:10;10.40;99.90
44359;DHT22;30077;52.474;13.326;2023-12-29T19:03:11;10.40;99.90
44359;DHT22;30077;52.474;13.326;2023-12-29T19:13:12;10.40;99.90
44359;DHT22;30077;52.474;13.326;2023-12-29T19:23:13;10.30;99.90
44359;DHT22;30077;52.474;13.326;2023-12-29T19:33:14;10.10;99.90
44359;DHT22;30077;52.474;13.326;2023-12-29T19:43:14;9.90;99.90
44359;DHT22;30077;52.474;13.326;2023-12-29T19:53:18;9.70;99.90
44359;DHT22;30077;52.474;13.326;2023-12-29T20:03:18;9.50;99.90
44359;DHT22;30077;52.474;13.326;2023-12-29T20:13:19;9.50;99.90
44359;DHT22;30077;52.474;13.326;2023-12-29T20:23:20;9.40;99.90
44359;DHT22;30077;52.474;13.326;2023-12-29T20:33:20;9.30;99.90
44359;DHT22;30077;52.474;13.326;2023-12-29T20:43:21;9.20;99.90
44359;DHT22;30077;52.474;13.326;2023-12-29T20:53:22;9.30;99.90
44359;DHT22;30077;52.474;13.326;2023-12-29T21:03:22;9.20;99.90
44359;DHT22;30077;52.474;13.326;2023-12-29T21:13:27;9.20;99.90
44359;DHT22;30077;52.474;13.326;2023-12-29T21:23:29;9.10;99.90
44359;DHT22;30077;52.474;13.326;2023-12-29T21:33:29;9.00;99.90
44359;DHT22;30077;52.474;13.326;2023-12-29T21:43:30;8.90;99.90
44359;DHT22;30077;52.474;13.326;2023-12-29T21:53:31;8.80;99.90
44359;DHT22;30077;52.474;13.326;2023-12-29T22:03:32;8.70;99.90
44359;DHT22;30077;52.474;13.326;2023-12-29T22:13:33;8.80;99.90
44359;DHT22;30077;52.474;13.326;2023-12-29T22:23:34;8.90;99.90
44359;DHT22;30077;52.474;13.326;2023-12-29T22:33:35;8.90;99.90
44359;DHT22;30077;52.474;13.326;2023-12-29T22:43:36;9.00;99.90
44359;DHT22;30077;52.474;13.326;2023-12-29T22:53:37;9.10;99.90
44359;DHT22;30077;52.474;13.326;2023-12-29T23:03:38;9.20;99.90
44359;DHT22;30077;52.474;13.326;2023-12-29T23:13:38;9.30;99.90
44359;DHT22;30077;52.474;13.326;2023-12-29T23:23:39;9.40;99.90
44359;DHT22;30077;52.474;13.326;2023-12-29T23:33:42;9.40;99.90
44359;DHT22;30077;52.474;13.326;2023-12-29T23:43:44;8.20;99.90
44359;DHT22;30077;52.474;13.326;2023-12-29T23:53:49;7.90;99.90
